createdAt,value
2022-08-27T00:00:11.425Z,7.75
2022-08-27T00:02:42.155Z,7.85
2022-08-27T00:05:12.084Z,7.95
2022-08-27T00:07:41.583Z,7.55
2022-08-27T00:10:13.661Z,7.75
2022-08-27T00:12:43.030Z,7.68
2022-08-27T00:15:17.874Z,8.80
2022-08-27T00:17:49.268Z,8.48
2022-08-27T00:20:21.939Z,9.70
2022-08-27T00:22:51.308Z,8.70
2022-08-27T00:25:21.517Z,8.20
2022-08-27T00:27:51.092Z,7.85
2022-08-27T00:30:23.427Z,8.75
2022-08-27T00:32:53.974Z,8.50
2022-08-27T00:35:24.244Z,8.52
2022-08-27T00:37:53.327Z,8.65
2022-08-27T00:40:23.718Z,9.02
2022-08-27T00:42:52.868Z,8.35
2022-08-27T00:45:25.859Z,9.68
2022-08-27T00:47:58.588Z,8.55
2022-08-27T00:50:33.453Z,8.43
2022-08-27T00:53:07.073Z,9.80
2022-08-27T00:55:40.514Z,9.43
2022-08-27T00:58:14.574Z,9.35
2022-08-27T01:00:44.198Z,8.70
2022-08-27T01:03:15.361Z,9.27
2022-08-27T01:05:45.609Z,9.82
2022-08-27T01:08:18.794Z,9.55
2022-08-27T01:10:49.203Z,8.73
2022-08-27T01:13:59.175Z,9.65
2022-08-27T01:16:18.767Z,8.63
2022-08-27T01:18:50.015Z,9.43
2022-08-27T01:21:28.397Z,9.45
2022-08-27T01:24:04.563Z,9.10
2022-08-27T01:26:35.338Z,9.13
2022-08-27T01:29:04.983Z,9.65
2022-08-27T01:31:34.263Z,10.20
2022-08-27T01:34:07.214Z,9.30
2022-08-27T01:36:36.345Z,9.63
2022-08-27T01:39:05.560Z,9.88
2022-08-27T01:41:36.395Z,9.48
2022-08-27T01:44:06.488Z,9.57
2022-08-27T01:46:36.695Z,9.90
2022-08-27T01:49:05.978Z,10.10
2022-08-27T01:51:36.160Z,10.48
2022-08-27T01:54:05.491Z,9.52
2022-08-27T01:56:35.970Z,9.95
2022-08-27T01:59:05.308Z,9.10
2022-08-27T02:01:35.664Z,10.18
2022-08-27T02:04:05.389Z,10.10
2022-08-27T02:06:34.521Z,10.15
2022-08-27T02:09:04.207Z,9.30
2022-08-27T02:11:33.401Z,10.45
2022-08-27T02:14:10.093Z,9.38
2022-08-27T02:16:52.223Z,9.52
2022-08-27T02:19:23.006Z,10.13
2022-08-27T02:21:53.436Z,10.85
2022-08-27T02:24:23.041Z,11.02
2022-08-27T02:26:52.059Z,11.30
2022-08-27T02:29:22.739Z,10.15
2022-08-27T02:31:52.177Z,9.80
2022-08-27T02:34:21.347Z,10.95
2022-08-27T02:36:50.529Z,10.43
2022-08-27T02:39:19.603Z,10.80
2022-08-27T02:41:49.454Z,11.00
2022-08-27T02:44:18.649Z,10.70
2022-08-27T02:46:50.079Z,10.27
2022-08-27T02:49:22.773Z,10.52
2022-08-27T02:51:56.558Z,10.85
2022-08-27T02:54:26.320Z,10.80
2022-08-27T02:56:56.175Z,10.18
2022-08-27T02:59:25.455Z,10.88
2022-08-27T03:01:56.151Z,10.55
2022-08-27T03:04:25.315Z,9.98
2022-08-27T03:06:54.853Z,10.60
2022-08-27T03:09:24.016Z,10.93
2022-08-27T03:11:53.786Z,10.93
2022-08-27T03:14:22.940Z,10.88
2022-08-27T03:16:52.211Z,11.50
2022-08-27T03:19:23.922Z,11.70
2022-08-27T03:21:54.703Z,11.45
2022-08-27T03:24:24.035Z,11.40
2022-08-27T03:26:53.988Z,10.60
2022-08-27T03:29:23.215Z,11.10
2022-08-27T03:31:52.221Z,10.50
2022-08-27T03:34:22.777Z,10.85
2022-08-27T03:36:51.871Z,11.68
2022-08-27T03:39:21.238Z,10.85
2022-08-27T03:41:54.677Z,12.10
2022-08-27T03:44:25.263Z,11.55
2022-08-27T03:46:54.517Z,11.60
2022-08-27T03:49:25.386Z,11.63
2022-08-27T03:51:55.699Z,11.38
2022-08-27T03:54:25.293Z,11.73
2022-08-27T03:56:54.302Z,11.90
2022-08-27T03:59:23.307Z,11.25
2022-08-27T04:01:52.535Z,11.63
2022-08-27T04:04:21.606Z,11.70
2022-08-27T04:06:52.582Z,11.38
2022-08-27T04:09:21.717Z,11.98
2022-08-27T04:11:50.927Z,11.50
2022-08-27T04:14:27.008Z,11.18
2022-08-27T04:16:57.345Z,11.68
2022-08-27T04:19:28.557Z,11.93
2022-08-27T04:22:03.706Z,11.43
2022-08-27T04:24:34.342Z,12.10
2022-08-27T04:27:04.255Z,11.50
2022-08-27T04:29:33.466Z,11.95
2022-08-27T04:32:02.865Z,12.13
2022-08-27T04:34:32.608Z,11.05
2022-08-27T04:37:03.275Z,11.65
2022-08-27T04:39:33.068Z,10.95
2022-08-27T04:42:03.833Z,11.77
2022-08-27T04:44:34.691Z,11.85
2022-08-27T04:47:06.488Z,11.88
2022-08-27T04:49:35.601Z,11.77
2022-08-27T04:52:06.803Z,10.68
2022-08-27T04:54:37.135Z,11.35
2022-08-27T04:57:08.363Z,11.35
2022-08-27T04:59:39.214Z,10.43
2022-08-27T05:02:11.145Z,11.77
2022-08-27T05:04:42.224Z,12.20
2022-08-27T05:07:12.915Z,11.50
2022-08-27T05:09:42.285Z,11.75
2022-08-27T05:12:11.445Z,11.27
2022-08-27T05:14:40.525Z,11.85
2022-08-27T05:17:09.640Z,11.07
2022-08-27T05:19:39.307Z,10.90
2022-08-27T05:22:08.539Z,10.98
2022-08-27T05:24:39.094Z,11.00
2022-08-27T05:27:10.173Z,10.85
2022-08-27T05:29:42.152Z,10.55
2022-08-27T05:32:11.331Z,11.77
2022-08-27T05:34:40.500Z,11.20
2022-08-27T05:37:09.753Z,10.40
2022-08-27T05:39:40.315Z,11.23
2022-08-27T05:42:09.509Z,11.32
2022-08-27T05:44:41.357Z,10.02
2022-08-27T05:47:10.900Z,10.52
2022-08-27T05:49:40.265Z,9.93
2022-08-27T05:52:13.968Z,10.43
2022-08-27T05:54:44.839Z,10.43
2022-08-27T05:57:14.086Z,10.30
2022-08-27T06:00:00.458Z,9.95
2022-08-27T06:02:29.842Z,10.60
2022-08-27T06:04:59.085Z,11.30
2022-08-27T06:07:30.192Z,12.00
2022-08-27T06:10:00.700Z,9.82
2022-08-27T06:12:30.012Z,10.23
2022-08-27T06:14:59.068Z,10.35
2022-08-27T06:17:28.348Z,10.55
2022-08-27T06:19:57.770Z,9.55
2022-08-27T06:22:27.205Z,10.30
2022-08-27T06:24:56.235Z,9.73
2022-08-27T06:27:26.738Z,10.88
2022-08-27T06:29:55.828Z,9.73
2022-08-27T06:32:26.294Z,9.85
2022-08-27T06:34:55.436Z,9.27
2022-08-27T06:37:24.554Z,9.90
2022-08-27T06:39:54.023Z,8.93
2022-08-27T06:42:24.095Z,9.88
2022-08-27T06:44:56.629Z,9.50
2022-08-27T06:47:26.360Z,9.38
2022-08-27T06:49:55.776Z,9.48
2022-08-27T06:52:24.961Z,8.73
2022-08-27T06:54:54.347Z,8.77
2022-08-27T06:57:24.952Z,8.48
2022-08-27T06:59:55.566Z,8.57
2022-08-27T07:02:25.006Z,9.40
2022-08-27T07:04:55.484Z,8.65
2022-08-27T07:07:31.789Z,8.90
2022-08-27T07:10:06.447Z,8.13
2022-08-27T07:12:35.746Z,8.38
2022-08-27T07:15:07.096Z,8.60
2022-08-27T07:17:36.262Z,8.32
2022-08-27T07:20:07.315Z,8.48
2022-08-27T07:22:36.720Z,8.52
2022-08-27T07:25:06.296Z,8.93
2022-08-27T07:27:35.623Z,8.77
2022-08-27T07:30:07.496Z,8.82
2022-08-27T07:32:36.725Z,8.73
2022-08-27T07:35:09.683Z,7.82
2022-08-27T07:37:39.728Z,9.00
2022-08-27T07:40:12.236Z,10.13
2022-08-27T07:43:01.539Z,9.38
2022-08-27T07:45:32.256Z,9.35
2022-08-27T07:48:01.497Z,9.20
2022-08-27T07:50:30.786Z,9.20
2022-08-27T07:52:59.805Z,10.18
2022-08-27T07:55:29.139Z,8.38
2022-08-27T07:57:58.800Z,8.52
2022-08-27T08:00:29.007Z,7.90
2022-08-27T08:02:59.652Z,8.57
2022-08-27T08:05:29.298Z,7.78
2022-08-27T08:07:58.562Z,7.88
2022-08-27T08:10:28.494Z,8.18
2022-08-27T08:12:59.506Z,8.30
2022-08-27T08:15:28.643Z,7.57
2022-08-27T08:17:59.433Z,8.30
2022-08-27T08:20:54.334Z,7.80
2022-08-27T08:23:18.159Z,7.55
2022-08-27T08:25:47.355Z,7.53
2022-08-27T08:28:16.606Z,8.23
2022-08-27T08:30:46.627Z,7.38
2022-08-27T08:33:17.662Z,7.47
2022-08-27T08:35:46.917Z,8.48
2022-08-27T08:38:16.016Z,9.10
2022-08-27T08:40:49.134Z,8.50
2022-08-27T08:43:33.432Z,8.48
2022-08-27T08:46:10.214Z,8.77
2022-08-27T08:48:46.118Z,8.68
2022-08-27T08:51:22.431Z,8.43
2022-08-27T08:53:55.920Z,8.65
2022-08-27T08:56:30.302Z,8.23
2022-08-27T08:59:02.735Z,8.73
2022-08-27T09:01:32.106Z,8.70
2022-08-27T09:04:05.727Z,9.32
2022-08-27T09:06:49.902Z,9.40
2022-08-27T09:09:24.354Z,8.50
2022-08-27T09:12:01.180Z,9.02
2022-08-27T09:14:38.972Z,8.50
2022-08-27T09:17:11.258Z,9.65
2022-08-27T09:19:43.430Z,8.63
2022-08-27T09:22:24.472Z,8.75
2022-08-27T09:25:03.284Z,9.55
2022-08-27T09:27:33.139Z,9.68
2022-08-27T09:30:10.581Z,9.68
2022-08-27T09:32:40.593Z,9.70
2022-08-27T09:35:13.912Z,9.43
2022-08-27T09:37:47.116Z,9.55
2022-08-27T09:40:23.246Z,10.60
2022-08-27T09:42:56.387Z,9.23
2022-08-27T09:45:27.559Z,9.63
2022-08-27T09:48:04.904Z,9.85
2022-08-27T09:50:44.086Z,10.45
2022-08-27T09:53:22.110Z,10.43
2022-08-27T09:55:56.124Z,10.63
2022-08-27T09:58:28.789Z,16.13
2022-08-27T10:01:04.488Z,10.70
2022-08-27T10:03:34.635Z,10.27
2022-08-27T10:06:05.356Z,10.80
2022-08-27T10:08:42.617Z,9.98
2022-08-27T10:11:16.577Z,9.63
2022-08-27T10:13:53.784Z,9.77
2022-08-27T10:16:53.201Z,9.60
2022-08-27T10:19:38.085Z,9.02
2022-08-27T10:22:18.652Z,9.07
2022-08-27T10:25:01.799Z,10.60
2022-08-27T10:27:38.217Z,9.73
2022-08-27T10:30:10.277Z,8.80
2022-08-27T10:32:57.086Z,8.88
2022-08-27T10:35:35.505Z,8.77
2022-08-27T10:38:23.310Z,10.15
2022-08-27T10:41:00.318Z,9.90
2022-08-27T10:43:49.818Z,9.35
2022-08-27T10:46:36.536Z,9.52
2022-08-27T10:49:20.911Z,8.45
2022-08-27T10:51:59.211Z,8.40
2022-08-27T10:54:34.034Z,8.50
2022-08-27T10:57:28.600Z,8.63
2022-08-27T11:00:02.319Z,8.20
2022-08-27T11:02:37.825Z,8.55
2022-08-27T11:05:16.801Z,8.35
2022-08-27T11:07:50.655Z,8.00
2022-08-27T11:10:28.248Z,7.57
2022-08-27T11:13:00.369Z,7.63
2022-08-27T11:15:33.066Z,7.47
2022-08-27T11:18:07.782Z,7.43
2022-08-27T11:20:45.167Z,6.88
2022-08-27T11:23:18.829Z,6.95
2022-08-27T11:26:00.982Z,6.40
2022-08-27T11:28:37.835Z,5.90
2022-08-27T11:31:16.330Z,5.93
2022-08-27T11:33:54.414Z,6.63
2022-08-27T11:36:58.536Z,8.05
2022-08-27T11:39:42.230Z,7.60
2022-08-27T11:42:20.306Z,6.90
2022-08-27T11:44:51.263Z,7.30
2022-08-27T11:47:23.416Z,6.97
2022-08-27T11:49:54.915Z,7.40
2022-08-27T11:52:29.310Z,7.85
2022-08-27T11:55:15.574Z,8.75
2022-08-27T11:57:46.629Z,8.35
2022-08-27T12:00:20.809Z,8.82
2022-08-27T12:02:59.854Z,9.00
2022-08-27T12:05:41.620Z,8.43
2022-08-27T12:08:30.561Z,9.00
2022-08-27T12:11:14.125Z,8.63
2022-08-27T12:13:54.161Z,9.00
2022-08-27T12:16:31.718Z,8.52
2022-08-27T12:19:13.131Z,10.38
2022-08-27T12:21:57.519Z,9.73
2022-08-27T12:24:50.812Z,9.48
2022-08-27T12:27:34.803Z,10.40
2022-08-27T12:30:19.722Z,8.40
2022-08-27T12:32:51.536Z,8.98
2022-08-27T12:35:23.350Z,8.82
2022-08-27T12:37:57.698Z,9.57
2022-08-27T12:40:30.060Z,8.73
2022-08-27T12:43:10.171Z,9.45
2022-08-27T12:45:48.065Z,9.52
2022-08-27T12:48:22.299Z,9.88
2022-08-27T12:50:56.928Z,10.27
2022-08-27T12:53:43.848Z,10.00
2022-08-27T12:56:33.897Z,11.10
2022-08-27T12:59:18.635Z,10.20
2022-08-27T13:02:01.288Z,9.75
2022-08-27T13:04:34.086Z,9.80
2022-08-27T13:07:03.190Z,9.93
2022-08-27T13:09:34.507Z,10.43
2022-08-27T13:12:07.356Z,10.32
2022-08-27T13:14:38.997Z,10.32
2022-08-27T13:17:15.647Z,9.90
2022-08-27T13:19:51.503Z,9.90
2022-08-27T13:22:25.432Z,10.38
2022-08-27T13:24:56.222Z,9.98
2022-08-27T13:27:28.458Z,9.85
2022-08-27T13:30:00.060Z,9.10
2022-08-27T13:32:32.366Z,9.70
2022-08-27T13:35:03.085Z,9.43
2022-08-27T13:37:38.156Z,9.93
2022-08-27T13:40:08.410Z,8.63
2022-08-27T13:42:43.031Z,8.90
2022-08-27T13:45:13.113Z,8.45
2022-08-27T13:47:47.106Z,8.73
2022-08-27T13:50:22.948Z,8.07
2022-08-27T13:53:12.258Z,8.02
2022-08-27T13:55:48.278Z,8.00
2022-08-27T13:58:22.414Z,8.98
2022-08-27T14:00:52.053Z,8.20
2022-08-27T14:03:34.431Z,8.82
2022-08-27T14:06:04.410Z,8.98
2022-08-27T14:08:36.178Z,8.77
2022-08-27T14:11:08.587Z,8.95
2022-08-27T14:13:44.039Z,8.82
2022-08-27T14:16:24.807Z,8.70
2022-08-27T14:18:59.659Z,8.38
2022-08-27T14:21:28.969Z,8.88
2022-08-27T14:23:57.950Z,7.65
2022-08-27T14:26:29.648Z,8.30
2022-08-27T14:28:59.019Z,7.80
2022-08-27T14:31:30.345Z,8.27
2022-08-27T14:34:00.908Z,8.20
2022-08-27T14:36:33.088Z,8.50
2022-08-27T14:39:02.473Z,8.07
2022-08-27T14:41:33.145Z,8.00
2022-08-27T14:44:02.394Z,8.05
2022-08-27T14:46:36.159Z,8.60
2022-08-27T14:49:15.988Z,8.00
2022-08-27T14:51:47.398Z,7.70
2022-08-27T14:54:16.653Z,8.55
2022-08-27T14:56:46.476Z,7.13
2022-08-27T14:59:15.596Z,7.47
2022-08-27T15:01:45.084Z,6.95
2022-08-27T15:04:16.624Z,7.40
2022-08-27T15:06:46.177Z,8.18
2022-08-27T15:09:17.534Z,6.40
2022-08-27T15:11:50.116Z,7.00
2022-08-27T15:14:24.396Z,7.35
2022-08-27T15:16:54.213Z,6.25
2022-08-27T15:19:27.104Z,7.07
2022-08-27T15:22:02.872Z,7.28
2022-08-27T15:24:43.043Z,6.65
2022-08-27T15:27:12.294Z,6.90
2022-08-27T15:29:41.873Z,6.93
2022-08-27T15:32:16.116Z,7.18
2022-08-27T15:34:48.108Z,6.85
2022-08-27T15:37:17.268Z,6.78
2022-08-27T15:39:46.352Z,6.65
2022-08-27T15:42:16.030Z,6.60
2022-08-27T15:44:48.273Z,6.85
2022-08-27T15:47:19.586Z,6.75
2022-08-27T15:49:50.469Z,6.80
2022-08-27T15:52:22.360Z,7.00
2022-08-27T15:54:51.927Z,6.50
2022-08-27T15:57:22.617Z,6.32
2022-08-27T15:59:51.871Z,6.82
2022-08-27T16:02:24.196Z,6.65
2022-08-27T16:04:54.809Z,6.28
2022-08-27T16:07:24.422Z,7.15
2022-08-27T16:09:54.145Z,6.57
2022-08-27T16:12:27.258Z,6.40
2022-08-27T16:14:56.828Z,7.03
2022-08-27T16:17:26.840Z,6.85
2022-08-27T16:19:57.803Z,6.32
2022-08-27T16:22:27.066Z,6.22
2022-08-27T16:24:56.225Z,7.63
2022-08-27T16:27:25.343Z,7.03
2022-08-27T16:29:54.476Z,7.63
2022-08-27T16:32:25.835Z,7.18
2022-08-27T16:34:57.147Z,7.10
2022-08-27T16:37:26.739Z,6.72
2022-08-27T16:39:56.253Z,7.20
2022-08-27T16:42:25.458Z,6.93
2022-08-27T16:44:54.591Z,7.03
2022-08-27T16:47:23.622Z,6.18
2022-08-27T16:50:10.325Z,6.18
2022-08-27T16:52:56.395Z,6.57
2022-08-27T16:55:25.443Z,6.35
2022-08-27T16:57:54.608Z,6.80
2022-08-27T17:00:24.284Z,6.70
2022-08-27T17:02:53.883Z,6.10
2022-08-27T17:05:34.127Z,5.95
2022-08-27T17:08:06.634Z,6.10
2022-08-27T17:10:45.924Z,6.28
2022-08-27T17:13:16.784Z,6.07
2022-08-27T17:15:52.153Z,6.30
2022-08-27T17:18:22.712Z,6.13
2022-08-27T17:20:53.357Z,5.40
2022-08-27T17:23:26.964Z,5.60
2022-08-27T17:25:56.303Z,5.38
2022-08-27T17:28:25.602Z,5.35
2022-08-27T17:30:55.619Z,5.60
2022-08-27T17:33:30.145Z,5.47
2022-08-27T17:35:59.421Z,5.65
2022-08-27T17:38:32.912Z,5.40
2022-08-27T17:41:04.875Z,5.50
2022-08-27T17:43:33.993Z,5.70
2022-08-27T17:46:03.205Z,5.30
2022-08-27T17:48:32.781Z,5.85
2022-08-27T17:51:01.977Z,5.45
2022-08-27T17:53:32.672Z,6.38
2022-08-27T17:56:01.955Z,5.70
2022-08-27T17:58:32.854Z,5.90
2022-08-27T18:01:02.090Z,5.50
2022-08-27T18:03:44.950Z,5.88
2022-08-27T18:06:17.737Z,6.13
2022-08-27T18:08:48.436Z,5.75
2022-08-27T18:11:20.158Z,5.47
2022-08-27T18:13:53.949Z,5.60
2022-08-27T18:16:23.549Z,5.88
2022-08-27T18:18:53.068Z,5.45
2022-08-27T18:21:25.525Z,6.90
2022-08-27T18:23:56.895Z,6.28
2022-08-27T18:26:30.143Z,6.25
2022-08-27T18:28:59.862Z,6.07
2022-08-27T18:31:31.942Z,5.88
2022-08-27T18:34:02.566Z,5.90
2022-08-27T18:36:31.813Z,6.10
2022-08-27T18:39:02.543Z,6.13
2022-08-27T18:41:34.806Z,6.53
2022-08-27T18:44:15.339Z,6.15
2022-08-27T18:46:47.251Z,5.20
2022-08-27T18:49:17.000Z,5.65
2022-08-27T18:51:50.637Z,5.72
2022-08-27T18:54:25.319Z,6.88
2022-08-27T18:56:54.920Z,6.75
2022-08-27T18:59:26.237Z,7.38
2022-08-27T19:01:57.202Z,6.88
2022-08-27T19:04:27.843Z,8.32
2022-08-27T19:06:57.653Z,9.15
2022-08-27T19:09:28.567Z,8.38
2022-08-27T19:11:58.288Z,7.55
2022-08-27T19:14:27.646Z,6.75
2022-08-27T19:16:57.510Z,6.38
2022-08-27T19:19:27.765Z,6.85
2022-08-27T19:21:58.599Z,7.60
2022-08-27T19:24:32.528Z,8.20
2022-08-27T19:27:08.026Z,7.22
2022-08-27T19:29:37.883Z,8.18
2022-08-27T19:32:07.508Z,10.50
2022-08-27T19:34:36.689Z,10.40
2022-08-27T19:37:07.759Z,8.15
2022-08-27T19:39:39.602Z,8.13
2022-08-27T19:42:09.280Z,7.32
2022-08-27T19:44:38.700Z,6.80
2022-08-27T19:47:11.560Z,6.63
2022-08-27T19:49:42.258Z,6.72
2022-08-27T19:52:11.515Z,12.00
2022-08-27T19:54:56.751Z,7.40
2022-08-27T19:57:31.433Z,6.90
2022-08-27T20:00:01.084Z,6.57
2022-08-27T20:02:39.238Z,6.90
2022-08-27T20:05:18.436Z,6.47
2022-08-27T20:07:48.517Z,6.10
2022-08-27T20:10:21.651Z,6.50
2022-08-27T20:12:51.605Z,6.75
2022-08-27T20:15:22.895Z,6.10
2022-08-27T20:17:54.385Z,6.05
2022-08-27T20:20:26.159Z,6.07
2022-08-27T20:22:56.120Z,6.18
2022-08-27T20:25:28.122Z,6.65
2022-08-27T20:27:57.506Z,5.78
2022-08-27T20:30:29.172Z,6.18
2022-08-27T20:33:00.368Z,6.43
2022-08-27T20:35:30.185Z,6.28
2022-08-27T20:37:59.684Z,6.43
2022-08-27T20:40:31.716Z,6.45
2022-08-27T20:43:01.498Z,6.88
2022-08-27T20:45:33.966Z,6.40
2022-08-27T20:48:04.300Z,6.53
2022-08-27T20:50:33.793Z,6.70
2022-08-27T20:53:03.251Z,6.30
2022-08-27T20:55:34.073Z,6.90
2022-08-27T20:58:35.531Z,6.63
2022-08-27T21:01:05.817Z,6.82
2022-08-27T21:03:35.494Z,7.50
2022-08-27T21:06:04.848Z,7.05
2022-08-27T21:08:33.809Z,6.95
2022-08-27T21:11:10.888Z,7.25
2022-08-27T21:13:55.376Z,6.70
2022-08-27T21:16:26.962Z,6.97
2022-08-27T21:18:57.395Z,7.13
2022-08-27T21:21:26.711Z,6.82
2022-08-27T21:23:56.477Z,6.97
2022-08-27T21:26:27.156Z,6.57
2022-08-27T21:28:56.614Z,7.10
2022-08-27T21:31:26.779Z,6.97
2022-08-27T21:33:56.066Z,7.13
2022-08-27T21:36:25.124Z,7.07
2022-08-27T21:38:54.322Z,7.63
2022-08-27T21:41:23.883Z,7.30
2022-08-27T21:43:55.036Z,6.97
2022-08-27T21:46:24.474Z,6.68
2022-08-27T21:48:59.128Z,6.82
2022-08-27T21:51:28.653Z,7.32
2022-08-27T21:54:00.185Z,6.57
2022-08-27T21:56:30.512Z,6.60
2022-08-27T21:59:01.682Z,7.80
2022-08-27T22:01:31.497Z,7.15
2022-08-27T22:04:01.555Z,7.00
2022-08-27T22:06:31.223Z,7.40
2022-08-27T22:09:00.817Z,7.00
2022-08-27T22:11:30.651Z,6.57
2022-08-27T22:14:01.900Z,7.63
2022-08-27T22:16:31.437Z,7.03
2022-08-27T22:19:00.954Z,7.45
2022-08-27T22:21:31.167Z,7.43
2022-08-27T22:24:00.786Z,6.97
2022-08-27T22:26:30.341Z,6.90
2022-08-27T22:29:02.523Z,7.63
2022-08-27T22:31:33.940Z,7.50
2022-08-27T22:34:04.175Z,8.43
2022-08-27T22:36:33.651Z,7.88
2022-08-27T22:39:04.135Z,8.40
2022-08-27T22:41:33.504Z,7.95
2022-08-27T22:44:05.726Z,8.70
2022-08-27T22:46:36.095Z,8.40
2022-08-27T22:49:05.860Z,8.32
2022-08-27T22:51:35.286Z,8.57
2022-08-27T22:54:04.921Z,7.47
2022-08-27T22:56:34.431Z,7.90
2022-08-27T22:59:07.441Z,7.70
2022-08-27T23:01:37.580Z,7.25
2022-08-27T23:04:08.090Z,7.30
2022-08-27T23:06:38.608Z,7.35
2022-08-27T23:09:08.061Z,7.07
2022-08-27T23:11:38.192Z,7.40
2022-08-27T23:14:08.924Z,8.23
2022-08-27T23:16:38.721Z,7.60
2022-08-27T23:19:08.228Z,7.50
2022-08-27T23:21:37.577Z,7.53
2022-08-27T23:24:07.137Z,8.80
2022-08-27T23:26:53.727Z,8.23
2022-08-27T23:29:26.547Z,8.20
2022-08-27T23:31:59.080Z,7.35
2022-08-27T23:34:29.125Z,7.88
2022-08-27T23:36:58.628Z,7.93
2022-08-27T23:39:27.871Z,8.43
2022-08-27T23:41:57.619Z,7.63
2022-08-27T23:44:29.524Z,7.82
2022-08-27T23:47:01.368Z,8.32
2022-08-27T23:49:31.219Z,7.82
2022-08-27T23:52:00.758Z,8.32
2022-08-27T23:54:30.625Z,8.10
2022-08-27T23:57:00.022Z,8.27
2022-08-27T23:59:31.337Z,7.95
